createdAt,value
2023-03-31T00:01:25.835Z,96040.31
2023-03-31T00:04:02.117Z,96027.56
2023-03-31T00:06:30.718Z,96020.34
2023-03-31T00:09:02.047Z,96028.16
2023-03-31T00:11:30.702Z,96022.72
2023-03-31T00:14:00.000Z,96024.66
2023-03-31T00:16:28.173Z,96014.78
2023-03-31T00:18:56.192Z,96012.84
2023-03-31T00:21:29.666Z,96016.47
2023-03-31T00:23:59.894Z,95993.81
2023-03-31T00:26:28.204Z,95995.59
2023-03-31T00:28:56.810Z,95993.94
2023-03-31T00:31:27.199Z,95985.31
2023-03-31T00:33:56.630Z,95991.84
2023-03-31T00:36:28.171Z,95992.53
2023-03-31T00:38:59.245Z,95981.28
2023-03-31T00:41:29.200Z,95991.00
2023-03-31T00:44:13.146Z,95973.34
2023-03-31T00:46:52.450Z,95970.31
2023-03-31T00:49:26.567Z,95964.09
2023-03-31T00:51:58.487Z,95966.31
2023-03-31T00:54:28.637Z,95966.31
2023-03-31T00:57:03.423Z,95970.63
2023-03-31T00:59:33.663Z,95964.41
2023-03-31T01:02:04.663Z,95950.34
2023-03-31T01:04:36.267Z,95952.84
2023-03-31T01:07:09.351Z,95941.47
2023-03-31T01:09:38.888Z,95936.03
2023-03-31T01:12:09.899Z,95915.91
2023-03-31T01:14:37.783Z,95902.56
2023-03-31T01:17:09.896Z,95893.78
2023-03-31T01:19:54.557Z,95907.28
2023-03-31T01:23:07.131Z,95917.13
2023-03-31T01:26:16.322Z,95910.91
2023-03-31T01:28:52.498Z,95910.75
2023-03-31T01:31:53.953Z,95924.09
2023-03-31T01:34:55.105Z,95935.59
2023-03-31T01:38:09.446Z,95921.47
2023-03-31T01:41:04.278Z,95910.91
2023-03-31T01:43:42.351Z,95909.09
2023-03-31T01:46:22.264Z,95913.38
2023-03-31T01:48:58.491Z,95916.72
2023-03-31T01:51:34.281Z,95920.91
2023-03-31T01:54:08.042Z,95924.63
2023-03-31T01:56:40.541Z,95922.72
2023-03-31T01:59:13.155Z,95914.09
2023-03-31T02:01:48.969Z,95904.22
2023-03-31T02:04:22.163Z,95904.09
2023-03-31T02:06:56.268Z,95910.34
2023-03-31T02:09:27.924Z,95902.41
2023-03-31T02:11:59.327Z,95900.75
2023-03-31T02:14:31.549Z,95891.16
2023-03-31T02:17:02.362Z,95879.22
2023-03-31T02:19:34.767Z,95865.03
2023-03-31T02:22:05.120Z,95865.16
2023-03-31T02:24:34.622Z,95858.09
2023-03-31T02:27:07.918Z,95858.34
2023-03-31T02:29:36.448Z,95847.25
2023-03-31T02:32:12.688Z,95833.34
2023-03-31T02:34:40.961Z,95797.94
2023-03-31T02:37:09.152Z,95784.31
2023-03-31T02:39:41.219Z,95762.81
2023-03-31T02:42:10.846Z,95762.66
2023-03-31T02:44:40.212Z,95756.41
2023-03-31T02:47:11.208Z,95762.66
2023-03-31T02:49:42.931Z,95751.25
2023-03-31T02:52:35.777Z,95747.91
2023-03-31T02:55:16.432Z,95742.66
2023-03-31T02:58:09.815Z,95728.75
2023-03-31T03:00:49.684Z,95725.69
2023-03-31T03:03:31.499Z,95718.63
2023-03-31T03:06:07.201Z,95709.16
2023-03-31T03:09:06.361Z,95703.22
2023-03-31T03:11:47.251Z,95694.47
2023-03-31T03:14:24.701Z,95679.03
2023-03-31T03:16:58.809Z,95676.00
2023-03-31T03:19:27.386Z,95672.66
2023-03-31T03:21:55.584Z,95658.53
2023-03-31T03:24:23.626Z,95650.88
2023-03-31T03:26:51.832Z,95654.34
2023-03-31T03:29:21.188Z,95647.28
2023-03-31T03:31:49.324Z,95637.69
2023-03-31T03:34:18.638Z,95637.69
2023-03-31T03:36:47.017Z,95639.66
2023-03-31T03:39:14.951Z,95627.53
2023-03-31T03:41:42.887Z,95633.09
2023-03-31T03:44:10.685Z,95626.03
2023-03-31T03:46:40.006Z,95614.50
2023-03-31T03:49:07.980Z,95601.31
2023-03-31T03:51:35.890Z,95588.69
2023-03-31T03:54:03.846Z,95587.03
2023-03-31T03:56:31.843Z,95582.72
2023-03-31T03:58:59.681Z,95570.81
2023-03-31T04:01:27.506Z,95567.06
2023-03-31T04:03:56.770Z,95561.22
2023-03-31T04:06:24.693Z,95555.13
2023-03-31T04:08:52.586Z,95538.63
2023-03-31T04:11:20.774Z,95534.47
2023-03-31T04:13:48.708Z,95528.19
2023-03-31T04:16:17.250Z,95537.63
2023-03-31T04:18:46.313Z,95528.19
2023-03-31T04:21:23.004Z,95519.19
2023-03-31T04:23:58.569Z,95527.38
2023-03-31T04:26:31.144Z,95526.13
2023-03-31T04:29:00.458Z,95526.25
2023-03-31T04:31:30.895Z,95528.06
2023-03-31T04:34:02.382Z,95531.25
2023-03-31T04:36:32.381Z,95524.44
2023-03-31T04:39:01.300Z,95512.78
2023-03-31T04:41:29.211Z,95512.13
2023-03-31T04:43:57.366Z,95517.25
2023-03-31T04:46:25.624Z,95512.94
2023-03-31T04:48:53.580Z,95510.44
2023-03-31T04:51:21.618Z,95510.31
2023-03-31T04:53:50.830Z,95501.72
2023-03-31T04:56:18.717Z,95501.59
2023-03-31T04:58:46.588Z,95495.47
2023-03-31T05:01:18.107Z,95492.56
2023-03-31T05:06:16.054Z,95481.31
2023-03-31T05:08:44.275Z,95493.50
2023-03-31T05:11:13.528Z,95505.44
2023-03-31T05:13:41.481Z,95512.66
2023-03-31T05:16:10.869Z,95534.31
2023-03-31T05:18:38.989Z,95543.06
2023-03-31T05:21:11.953Z,95538.06
2023-03-31T05:23:39.844Z,95526.25
2023-03-31T05:26:08.212Z,95534.31
2023-03-31T05:28:38.141Z,95524.63
2023-03-31T05:31:07.093Z,95522.94
2023-03-31T05:33:40.254Z,95507.94
2023-03-31T05:36:10.510Z,95502.13
2023-03-31T05:38:38.988Z,95498.09
2023-03-31T05:41:07.616Z,95487.84
2023-03-31T05:43:37.766Z,95489.94
2023-03-31T05:46:06.662Z,95478.53
2023-03-31T05:48:37.403Z,95471.75
2023-03-31T05:51:06.156Z,95466.34
2023-03-31T05:53:34.340Z,95456.09
2023-03-31T05:56:05.648Z,95457.06
2023-03-31T05:58:35.367Z,95455.41
2023-03-31T06:01:10.149Z,95451.78
2023-03-31T06:03:41.865Z,95448.03
2023-03-31T06:06:13.224Z,95438.59
2023-03-31T06:08:41.674Z,95435.69
2023-03-31T06:11:12.470Z,95427.78
2023-03-31T06:13:41.079Z,95414.19
2023-03-31T06:16:13.988Z,95405.16
2023-03-31T06:18:42.759Z,95402.09
2023-03-31T06:21:13.887Z,95397.53
2023-03-31T06:23:41.928Z,95403.63
2023-03-31T06:26:10.313Z,95392.13
2023-03-31T06:28:38.292Z,95405.00
2023-03-31T06:31:08.090Z,95408.06
2023-03-31T06:33:37.799Z,95410.00
2023-03-31T06:36:07.213Z,95406.41
2023-03-31T06:38:36.419Z,95407.25
2023-03-31T06:41:04.663Z,95415.28
2023-03-31T06:43:32.769Z,95409.75
2023-03-31T06:46:01.372Z,95421.25
2023-03-31T06:48:29.655Z,95437.75
2023-03-31T06:51:01.616Z,95454.41
2023-03-31T06:53:30.270Z,95457.63
2023-03-31T06:55:58.577Z,95476.59
2023-03-31T06:58:29.003Z,95488.81
2023-03-31T07:00:58.883Z,95495.47
2023-03-31T07:03:27.272Z,95485.75
2023-03-31T07:05:56.316Z,95485.63
2023-03-31T07:08:26.148Z,95462.88
2023-03-31T07:10:57.779Z,95439.31
2023-03-31T07:13:26.460Z,95429.97
2023-03-31T07:15:54.894Z,95421.94
2023-03-31T07:18:26.306Z,95432.47
2023-03-31T07:20:54.640Z,95423.59
2023-03-31T07:23:22.637Z,95411.66
2023-03-31T07:25:52.170Z,95421.78
2023-03-31T07:28:21.124Z,95422.19
2023-03-31T07:30:49.766Z,95414.00
2023-03-31T07:33:17.726Z,95422.72
2023-03-31T07:35:51.701Z,95415.91
2023-03-31T07:38:28.244Z,95416.69
2023-03-31T07:41:07.767Z,95411.78
2023-03-31T07:43:36.840Z,95414.28
2023-03-31T07:46:05.558Z,95415.25
2023-03-31T07:48:33.940Z,95403.19
2023-03-31T07:51:02.264Z,95404.44
2023-03-31T07:53:35.590Z,95391.19
2023-03-31T07:56:05.656Z,95392.25
2023-03-31T07:58:33.865Z,95398.47
2023-03-31T08:01:02.112Z,95394.09
2023-03-31T08:03:32.125Z,95402.94
2023-03-31T08:06:00.194Z,95400.69
2023-03-31T08:08:28.533Z,95401.16
2023-03-31T08:10:56.475Z,95388.47
2023-03-31T08:13:27.059Z,95385.47
2023-03-31T08:15:55.195Z,95377.09
2023-03-31T08:18:23.298Z,95376.47
2023-03-31T08:20:51.307Z,95370.97
2023-03-31T08:23:19.363Z,95370.38
2023-03-31T08:25:47.350Z,95370.97
2023-03-31T08:28:15.458Z,95370.03
2023-03-31T08:30:45.281Z,95374.69
2023-03-31T08:33:13.283Z,95373.25
2023-03-31T08:35:41.364Z,95370.16
2023-03-31T08:38:09.427Z,95364.06
2023-03-31T08:40:42.060Z,95360.50
2023-03-31T08:43:15.853Z,95369.44
2023-03-31T08:45:48.947Z,95380.06
2023-03-31T08:48:26.916Z,95363.03
2023-03-31T08:51:02.019Z,95377.34
2023-03-31T08:53:33.404Z,95369.94
2023-03-31T08:56:02.035Z,95376.25
2023-03-31T08:58:39.525Z,95368.53
2023-03-31T09:01:23.220Z,95367.38
2023-03-31T09:04:10.934Z,95360.28
2023-03-31T09:06:44.361Z,95353.16
2023-03-31T09:09:23.846Z,95342.59
2023-03-31T09:11:56.106Z,95337.19
2023-03-31T09:14:32.424Z,95333.91
2023-03-31T09:17:14.255Z,95333.22
2023-03-31T09:19:47.782Z,95329.59
2023-03-31T09:22:19.724Z,95335.72
2023-03-31T09:24:54.088Z,95329.59
2023-03-31T09:27:22.292Z,95346.28
2023-03-31T09:29:54.195Z,95336.84
2023-03-31T09:32:25.990Z,95347.63
2023-03-31T09:34:57.575Z,95357.56
2023-03-31T09:37:28.339Z,95339.78
2023-03-31T09:39:56.403Z,95345.41
2023-03-31T09:42:24.393Z,95342.94
2023-03-31T09:44:52.535Z,95329.19
2023-03-31T09:47:28.964Z,95317.78
2023-03-31T09:49:57.542Z,95303.38
2023-03-31T09:52:30.918Z,95302.38
2023-03-31T09:55:01.500Z,95301.56
2023-03-31T09:57:33.535Z,95294.81
2023-03-31T10:00:16.243Z,95294.47
2023-03-31T10:02:50.696Z,95287.69
2023-03-31T10:05:33.472Z,95279.38
2023-03-31T10:08:21.986Z,95290.84
2023-03-31T10:10:54.192Z,95278.56
2023-03-31T10:13:24.979Z,95280.06
2023-03-31T10:15:55.379Z,95261.50
2023-03-31T10:18:34.485Z,95274.94
2023-03-31T10:21:05.376Z,95273.94
2023-03-31T10:23:35.819Z,95271.91
2023-03-31T10:26:06.128Z,95273.72
2023-03-31T10:28:37.213Z,95254.34
2023-03-31T10:31:06.419Z,95244.03
2023-03-31T10:33:45.182Z,95254.31
2023-03-31T10:36:20.997Z,95253.69
2023-03-31T10:38:51.510Z,95248.69
2023-03-31T10:41:21.813Z,95227.63
2023-03-31T10:43:52.452Z,95228.59
2023-03-31T10:46:21.475Z,95230.22
2023-03-31T10:48:52.642Z,95204.75
2023-03-31T10:51:22.327Z,95204.28
2023-03-31T10:53:51.609Z,95221.53
2023-03-31T10:56:35.096Z,95229.13
2023-03-31T10:59:32.371Z,95222.34
2023-03-31T11:02:17.592Z,95230.47
2023-03-31T11:04:56.630Z,95243.63
2023-03-31T11:07:36.873Z,95225.06
2023-03-31T11:10:22.135Z,95270.75
2023-03-31T11:12:58.971Z,95290.84
2023-03-31T11:15:32.385Z,95393.28
2023-03-31T11:18:15.531Z,95419.59
2023-03-31T11:20:59.353Z,95396.25
2023-03-31T11:23:37.865Z,95382.44
2023-03-31T11:26:11.976Z,95369.69
2023-03-31T11:28:54.588Z,95364.31
2023-03-31T11:31:34.373Z,95379.16
2023-03-31T11:34:36.693Z,95364.38
2023-03-31T11:37:21.474Z,95372.63
2023-03-31T11:40:05.785Z,95372.38
2023-03-31T11:42:39.041Z,95359.34
2023-03-31T11:45:17.098Z,95351.25
2023-03-31T11:47:50.927Z,95336.69
2023-03-31T11:50:23.203Z,95341.06
2023-03-31T11:52:59.989Z,95326.97
2023-03-31T11:55:30.190Z,95329.94
2023-03-31T11:58:04.245Z,95320.56
2023-03-31T12:00:36.475Z,95299.13
2023-03-31T12:03:11.822Z,95301.03
2023-03-31T12:05:45.252Z,95293.31
2023-03-31T12:08:19.691Z,95264.94
2023-03-31T12:10:54.578Z,95272.84
2023-03-31T12:13:41.648Z,95289.75
2023-03-31T12:16:14.474Z,95287.50
2023-03-31T12:18:48.178Z,95302.13
2023-03-31T12:21:17.665Z,95293.75
2023-03-31T12:23:47.566Z,95283.56
2023-03-31T12:26:31.189Z,95266.63
2023-03-31T12:29:04.762Z,95246.81
2023-03-31T12:31:34.254Z,95237.75
2023-03-31T12:34:05.999Z,95244.88
2023-03-31T12:36:57.069Z,95240.59
2023-03-31T12:39:37.618Z,95237.00
2023-03-31T12:42:37.272Z,95213.53
2023-03-31T12:45:17.127Z,95209.59
2023-03-31T12:48:04.575Z,95187.81
2023-03-31T12:50:53.511Z,95195.25
2023-03-31T12:53:33.588Z,95207.00
2023-03-31T12:56:03.062Z,95219.59
2023-03-31T12:58:45.388Z,95232.81
2023-03-31T13:01:17.099Z,95237.97
2023-03-31T13:03:51.526Z,95244.91
2023-03-31T13:06:55.007Z,95241.91
2023-03-31T13:09:59.189Z,95251.50
2023-03-31T13:12:33.122Z,95256.09
2023-03-31T13:15:06.028Z,95258.38
2023-03-31T13:17:36.852Z,95267.31
2023-03-31T13:20:28.075Z,95270.81
2023-03-31T13:23:03.620Z,95263.69
2023-03-31T13:25:43.808Z,95271.72
2023-03-31T13:28:25.677Z,95273.50
2023-03-31T13:30:57.029Z,95279.63
2023-03-31T13:33:28.743Z,95280.91
2023-03-31T13:36:26.076Z,95298.63
2023-03-31T13:39:04.608Z,95292.22
2023-03-31T13:41:46.360Z,95300.19
2023-03-31T13:44:38.478Z,95287.19
2023-03-31T13:47:25.903Z,95288.38
2023-03-31T13:50:27.120Z,95261.94
2023-03-31T13:53:06.678Z,95249.47
2023-03-31T13:56:14.201Z,95185.72
2023-03-31T13:59:17.825Z,95194.00
2023-03-31T14:02:14.880Z,95188.59
2023-03-31T14:05:18.324Z,95191.88
2023-03-31T14:07:49.871Z,95175.22
2023-03-31T14:10:29.898Z,95198.75
2023-03-31T14:13:12.984Z,95195.19
2023-03-31T14:15:45.583Z,95201.50
2023-03-31T14:18:20.230Z,95210.94
2023-03-31T14:20:58.311Z,95200.59
2023-03-31T14:23:41.221Z,95210.13
2023-03-31T14:26:19.705Z,95214.19
2023-03-31T14:29:03.679Z,95208.84
2023-03-31T14:31:38.873Z,95204.28
2023-03-31T14:34:26.325Z,95200.03
2023-03-31T14:37:00.326Z,95190.66
2023-03-31T14:39:32.231Z,95183.59
2023-03-31T14:42:03.973Z,95193.84
2023-03-31T14:44:32.290Z,95189.94
2023-03-31T14:47:01.835Z,95183.59
2023-03-31T14:49:36.842Z,95206.06
2023-03-31T14:52:15.084Z,95202.88
2023-03-31T14:54:47.387Z,95206.50
2023-03-31T14:57:19.410Z,95192.81
2023-03-31T14:59:50.730Z,95194.09
2023-03-31T15:02:24.838Z,95192.56
2023-03-31T15:04:56.569Z,95181.91
2023-03-31T15:07:25.440Z,95180.63
2023-03-31T15:09:54.063Z,95173.69
2023-03-31T15:12:24.083Z,95163.16
2023-03-31T15:14:56.061Z,95163.47
2023-03-31T15:17:26.720Z,95172.69
2023-03-31T15:19:58.083Z,95168.75
2023-03-31T15:22:28.054Z,95171.72
2023-03-31T15:24:56.818Z,95163.31
2023-03-31T15:27:37.769Z,95165.97
2023-03-31T15:30:09.193Z,95163.16
2023-03-31T15:32:40.108Z,95172.28
2023-03-31T15:35:22.530Z,95173.09
2023-03-31T15:37:53.102Z,95170.59
2023-03-31T15:40:24.244Z,95177.34
2023-03-31T15:43:06.308Z,95170.59
2023-03-31T15:45:52.700Z,95167.47
2023-03-31T15:48:24.631Z,95162.84
2023-03-31T15:50:54.262Z,95162.84
2023-03-31T15:53:32.395Z,95151.94
2023-03-31T15:56:01.890Z,95161.34
2023-03-31T15:58:56.047Z,95162.19
2023-03-31T16:01:25.211Z,95171.25
2023-03-31T16:03:57.185Z,95166.25
2023-03-31T16:06:37.216Z,95183.59
2023-03-31T16:09:08.332Z,95193.00
2023-03-31T16:11:43.250Z,95201.06
2023-03-31T16:14:19.023Z,95216.00
2023-03-31T16:16:50.403Z,95220.34
2023-03-31T16:19:19.430Z,95232.00
2023-03-31T16:21:52.697Z,95239.41
2023-03-31T16:24:22.470Z,95241.47
2023-03-31T16:26:50.467Z,95253.16
2023-03-31T16:29:22.996Z,95265.06
2023-03-31T16:31:51.323Z,95232.66
2023-03-31T16:34:19.328Z,95211.56
2023-03-31T16:36:49.419Z,95207.13
2023-03-31T16:39:17.458Z,95191.31
2023-03-31T16:41:45.339Z,95188.88
2023-03-31T16:44:13.438Z,95171.47
2023-03-31T16:46:41.481Z,95181.34
2023-03-31T16:49:09.505Z,95173.28
2023-03-31T16:51:37.490Z,95161.75
2023-03-31T16:54:08.047Z,95170.41
2023-03-31T16:56:36.424Z,95167.78
2023-03-31T16:59:04.776Z,95171.25
2023-03-31T17:01:32.846Z,95165.44
2023-03-31T17:04:01.031Z,95173.50
2023-03-31T17:06:29.122Z,95178.78
2023-03-31T17:08:57.184Z,95185.19
2023-03-31T17:11:27.476Z,95185.47
2023-03-31T17:13:56.858Z,95189.41
2023-03-31T17:16:32.810Z,95186.75
2023-03-31T17:19:12.805Z,95187.44
2023-03-31T17:21:40.814Z,95194.44
2023-03-31T17:24:09.141Z,95204.72
2023-03-31T17:26:39.437Z,95212.72
2023-03-31T17:29:07.598Z,95213.31
2023-03-31T17:31:35.760Z,95221.81
2023-03-31T17:34:03.796Z,95211.94
2023-03-31T17:36:31.741Z,95210.56
2023-03-31T17:39:00.227Z,95205.59
2023-03-31T17:41:29.312Z,95215.31
2023-03-31T17:43:59.163Z,95211.19
2023-03-31T17:46:27.303Z,95217.97
2023-03-31T17:48:58.357Z,95221.16
2023-03-31T17:51:27.838Z,95228.25
2023-03-31T17:53:56.364Z,95226.44
2023-03-31T17:56:24.780Z,95228.94
2023-03-31T17:58:53.925Z,95238.50
2023-03-31T18:01:23.329Z,95244.75
2023-03-31T18:03:51.454Z,95243.63
2023-03-31T18:06:19.473Z,95252.97
2023-03-31T18:08:47.877Z,95249.72
2023-03-31T18:11:16.274Z,95254.47
2023-03-31T18:13:44.758Z,95256.94
2023-03-31T18:16:13.012Z,95258.63
2023-03-31T18:18:43.865Z,95262.22
2023-03-31T18:21:13.538Z,95260.56
2023-03-31T18:23:41.941Z,95254.91
2023-03-31T18:26:11.948Z,95245.31
2023-03-31T18:28:40.796Z,95243.06
2023-03-31T18:31:09.910Z,95243.81
2023-03-31T18:33:38.097Z,95244.25
2023-03-31T18:36:08.134Z,95249.25
2023-03-31T18:38:37.192Z,95243.97
2023-03-31T18:41:05.859Z,95251.63
2023-03-31T18:43:43.482Z,95244.53
2023-03-31T18:46:11.924Z,95248.44
2023-03-31T18:48:41.934Z,95238.72
2023-03-31T18:51:18.440Z,95235.44
2023-03-31T18:53:46.468Z,95243.03
2023-03-31T18:56:14.789Z,95245.97
2023-03-31T18:58:44.064Z,95236.78
2023-03-31T19:01:12.146Z,95238.72
2023-03-31T19:03:40.177Z,95245.13
2023-03-31T19:06:11.042Z,95243.75
2023-03-31T19:08:40.882Z,95242.09
2023-03-31T19:11:11.066Z,95248.56
2023-03-31T19:13:39.984Z,95251.81
2023-03-31T19:16:08.147Z,95253.59
2023-03-31T19:18:36.293Z,95256.06
2023-03-31T19:21:04.821Z,95257.75
2023-03-31T19:23:33.405Z,95252.75
2023-03-31T19:26:03.242Z,95257.34
2023-03-31T19:28:31.591Z,95258.31
2023-03-31T19:31:00.171Z,95259.97
2023-03-31T19:33:28.464Z,95262.38
2023-03-31T19:35:57.729Z,95262.06
2023-03-31T19:38:27.141Z,95255.00
2023-03-31T19:40:55.220Z,95256.81
2023-03-31T19:43:26.569Z,95257.09
2023-03-31T19:45:56.855Z,95257.91
2023-03-31T19:48:26.622Z,95255.97
2023-03-31T19:50:56.317Z,95256.25
2023-03-31T19:53:25.081Z,95255.59
2023-03-31T19:55:57.322Z,95253.47
2023-03-31T19:58:27.157Z,95261.66
2023-03-31T20:00:56.174Z,95254.59
2023-03-31T20:03:25.887Z,95255.97
2023-03-31T20:06:02.272Z,95255.69
2023-03-31T20:08:30.243Z,95254.16
2023-03-31T20:11:00.354Z,95262.06
2023-03-31T20:13:29.825Z,95275.94
2023-03-31T20:16:02.815Z,95275.09
2023-03-31T20:18:31.124Z,95282.00
2023-03-31T20:21:07.068Z,95281.75
2023-03-31T20:23:36.543Z,95272.47
2023-03-31T20:26:09.129Z,95270.94
2023-03-31T20:28:47.014Z,95272.63
2023-03-31T20:31:17.705Z,95269.72
2023-03-31T20:33:46.193Z,95269.59
2023-03-31T20:36:19.030Z,95264.34
2023-03-31T20:38:51.487Z,95273.47
2023-03-31T20:41:20.823Z,95266.28
2023-03-31T20:43:51.083Z,95266.09
2023-03-31T20:46:19.867Z,95267.09
2023-03-31T20:48:50.673Z,95272.22
2023-03-31T20:51:21.286Z,95277.06
2023-03-31T20:54:01.346Z,95287.06
2023-03-31T20:56:31.115Z,95275.00
2023-03-31T20:59:01.047Z,95280.13
2023-03-31T21:01:32.226Z,95281.78
2023-03-31T21:04:02.492Z,95277.63
2023-03-31T21:06:33.471Z,95281.25
2023-03-31T21:09:01.594Z,95280.53
2023-03-31T21:11:29.754Z,95278.44
2023-03-31T21:13:57.810Z,95283.72
2023-03-31T21:16:36.838Z,95285.66
2023-03-31T21:19:05.228Z,95293.56
2023-03-31T21:21:35.301Z,95289.97
2023-03-31T21:24:03.333Z,95288.97
2023-03-31T21:26:31.419Z,95284.13
2023-03-31T21:29:09.121Z,95291.91
2023-03-31T21:31:38.808Z,95303.13
2023-03-31T21:34:06.718Z,95300.34
2023-03-31T21:36:35.001Z,95306.72
2023-03-31T21:39:03.096Z,95308.38
2023-03-31T21:41:37.782Z,95310.88
2023-03-31T21:44:06.500Z,95309.50
2023-03-31T21:46:34.842Z,95312.13
2023-03-31T21:49:05.332Z,95320.84
2023-03-31T21:51:33.934Z,95317.53
2023-03-31T21:54:04.744Z,95327.78
2023-03-31T21:56:45.041Z,95322.69
2023-03-31T21:59:13.070Z,95322.22
2023-03-31T22:01:41.897Z,95335.69
2023-03-31T22:04:12.854Z,95330.69
2023-03-31T22:06:40.973Z,95326.81
2023-03-31T22:09:09.192Z,95328.59
2023-03-31T22:11:37.100Z,95329.88
2023-03-31T22:14:06.329Z,95316.03
2023-03-31T22:16:53.247Z,95326.97
2023-03-31T22:19:22.933Z,95332.75
2023-03-31T22:21:58.336Z,95335.28
2023-03-31T22:24:26.318Z,95334.56
2023-03-31T22:26:54.470Z,95326.69
2023-03-31T22:29:22.930Z,95321.41
2023-03-31T22:31:51.031Z,95324.34
2023-03-31T22:34:20.057Z,95322.94
2023-03-31T22:36:49.845Z,95324.59
2023-03-31T22:39:18.282Z,95321.13
2023-03-31T22:41:52.379Z,95312.25
2023-03-31T22:44:20.376Z,95314.22
2023-03-31T22:46:50.810Z,95311.03
2023-03-31T22:49:18.924Z,95313.94
2023-03-31T22:51:47.742Z,95307.00
2023-03-31T22:54:17.905Z,95304.25
2023-03-31T22:56:46.334Z,95300.38
2023-03-31T22:59:14.696Z,95305.06
2023-03-31T23:01:43.056Z,95298.56
2023-03-31T23:04:24.102Z,95307.00
2023-03-31T23:06:52.895Z,95303.13
2023-03-31T23:09:23.722Z,95301.59
2023-03-31T23:11:52.764Z,95304.78
2023-03-31T23:14:21.562Z,95309.63
2023-03-31T23:16:49.776Z,95313.47
2023-03-31T23:19:19.425Z,95310.19
2023-03-31T23:21:47.382Z,95308.94
2023-03-31T23:24:19.228Z,95305.06
2023-03-31T23:26:48.624Z,95317.78
2023-03-31T23:29:16.768Z,95318.75
2023-03-31T23:31:45.881Z,95315.44
2023-03-31T23:34:14.757Z,95318.31
2023-03-31T23:36:43.205Z,95323.47
2023-03-31T23:39:23.499Z,95321.38
2023-03-31T23:42:02.002Z,95318.63
2023-03-31T23:44:30.485Z,95317.22
2023-03-31T23:46:58.722Z,95309.22
2023-03-31T23:49:27.096Z,95309.22
2023-03-31T23:51:55.346Z,95308.81
2023-03-31T23:54:23.438Z,95302.97
2023-03-31T23:56:51.986Z,95298.69
2023-03-31T23:59:21.457Z,95299.25
